Flight Track Log - Related Links

Times and Time Zones

All times are in EDT time to prevent confusion due to time zone crossing. See the N317FL flight status page for this flight to view local times or setup timezone preferences in your user account.

Time Position Orientation Groundspeed Altitude Reporting Facility
EDT Latitude Longitude Course Direction KTS MPH feet Rate Location/Type
Sat 10:28:02 35.9050 -78.7640 17° North 215 247 2,800  Level FlightAware ADS-B
Sat 10:28:27 35.9270 -78.7790 331° Northwest 229 264 4,600 4,350 Climbing FlightAware ADS-B
Sat 10:28:42 35.9300 -78.7970 282° West 234 269 5,700 4,667 Climbing FlightAware ADS-B
Sat 10:29:12 35.9250 -78.8370 261° West 240 276 8,100 4,371 Climbing FlightAware ADS-B
Sat 10:29:52 35.9160 -78.8920 259° West 259 298 10,800 2,550 Climbing FlightAware ADS-B
Sat 10:30:32 35.9030 -78.9580 256° West 310 357 11,500 1,412 Climbing FlightAware ADS-B
Sat 10:31:17 35.8870 -79.0360 256° West 317 365 12,800 3,075 Climbing FlightAware ADS-B
Sat 10:31:52 35.8770 -79.0910 257° West 293 337 15,600 2,100 Climbing FlightAware ADS-B
Sat 10:32:37 35.8640 -79.1570 256° West 293 337 15,600  Level FlightAware ADS-B
Sat 10:33:17 35.8540 -79.2130 258° West 293 337 15,600 4,140 Level FlightAware ADS-B
Sat 10:34:17 35.8310 -79.3210 255° West 293 337 22,500 4,140 Climbing FlightAware ADS-B
Sat 10:34:57 35.8190 -79.3750 255° West 293 337 22,500  Level FlightAware ADS-B
Sat 10:35:37 35.8070 -79.4300 255° West 293 337 22,500  Level FlightAware ADS-B
Sat 10:36:17 35.7950 -79.4850 255° West 293 337 22,500  Level FlightAware ADS-B
Sat 10:37:07 35.7800 -79.5540 255° West 293 337 22,500  Level FlightAware ADS-B
Sat 10:37:47 35.7680 -79.6090 255° West 293 337 22,500 4,787 Level FlightAware ADS-B
Sat 10:38:41 35.7756 -79.7719 255° West 334 384 30,000 1,425 Climbing Atlanta Center
Sat 10:44:27 35.5810 -80.4970 255° West 377 434 32,000 303 Climbing FlightAware ADS-B
Sat 10:45:17 35.5510 -80.5890 248° West 376 433 32,000  Level FlightAware ADS-B
Sat 10:46:02 35.5190 -80.6820 247° West 377 434 32,000  Level FlightAware ADS-B
Sat 10:46:42 35.4920 -80.7620 248° West 377 434 32,000  Level FlightAware ADS-B
Sat 10:47:22 35.4660 -80.8400 248° West 377 434 32,000 -494 Level FlightAware ADS-B
Sat 10:48:07 35.4340 -80.9320 247° West 381 438 31,300 -933 Descending FlightAware ADS-B
Sat 10:48:52 35.4040 -81.0210 248° West 385 443 30,600 -988 Descending FlightAware ADS-B
Sat 10:49:32 35.3770 -81.1000 247° West 386 444 29,900 -1,050 Descending FlightAware ADS-B
Sat 10:50:12 35.3480 -81.1830 247° West 389 448 29,200 -988 Descending FlightAware ADS-B
Sat 10:50:57 35.3200 -81.2650 247° West 389 448 28,500 -988 Descending FlightAware ADS-B
Sat 10:51:37 35.2900 -81.3530 247° West 388 447 27,800 -960 Descending FlightAware ADS-B
Sat 10:52:37 35.2490 -81.4690 247° West 387 445 26,900 -514 Descending FlightAware ADS-B
Sat 10:53:22 35.2230 -81.5490 248° West 387 445 26,900 -600 Level FlightAware ADS-B
Sat 10:54:07 35.2450 -81.4830 68° East 386 444 26,000 -1,200 Descending FlightAware ADS-B
Sat 10:54:57 35.2510 -81.4660 67° East 386 444 25,000 -1,140 Descending FlightAware ADS-B
Sat 10:55:47 35.2510 -81.4610 90° East 346 398 24,100 -600 Descending FlightAware ADS-B
Sat 10:56:27 35.2290 -81.5220 246° West 346 398 24,100  Level FlightAware ADS-B
Sat 10:57:07 35.2070 -81.5830 246° West 346 398 24,100  Level FlightAware ADS-B
Sat 10:57:47 35.1850 -81.6440 246° West 346 398 24,100 -2,700 Level FlightAware ADS-B
Sat 10:58:27 35.0250 -82.1080 247° West 320 368 20,500 -2,541 Descending FlightAware ADS-B
Sat 10:59:12 35.0020 -82.1740 247° West 320 368 20,500  Level FlightAware ADS-B
Sat 11:00:02 34.9780 -82.2450 248° West 320 368 20,500  Level FlightAware ADS-B
Sat 11:00:42 34.9580 -82.3010 246° West 320 368 20,500  Level FlightAware ADS-B
Sat 11:01:22 34.9380 -82.3580 247° West 320 368 20,500  Level FlightAware ADS-B
Sat 11:02:02 34.9190 -82.4140 248° West 320 368 20,500 -5,848 Level FlightAware ADS-B
Sat 11:02:41 34.8967 -82.4761 248° West 278 320 12,800 -5,636 Descending Atlanta Center
Sat 11:03:41 34.8767 -82.5525 252° West 263 303 11,200 -1,400 Descending Atlanta Center
Sat 11:04:41 34.8569 -82.6414 255° West 257 296 10,000 -1,300 Descending Atlanta Center
Sat 11:05:41 34.8369 -82.7178 252° West 257 296 8,600 -1,400 Descending Atlanta Center
Sat 11:06:41 34.8189 -82.7939 254° West 252 290 7,200 -1,450 Descending Atlanta Center
Sat 11:07:41 34.7969 -82.8803 253° West 246 283 5,700 -1,100 Descending Atlanta Center
Sat 11:08:41 34.7786 -82.9564 254° West 246 283 5,000 -350 Descending Atlanta Center
Sat 11:09:41 34.7606 -83.0350 254° West 246 283 5,000  Level Atlanta Center
Sat 11:10:41 34.7403 -83.1161 253° West 246 283 5,000  Level Atlanta Center
Sat 11:11:41 34.7200 -83.1897 251° West 246 283 5,000  Level Atlanta Center
Sat 11:12:41 34.6997 -83.2708 253° West 246 283 5,000 -250 Level Atlanta Center
Sat 11:13:41 34.6686 -83.3114 227° Southwest 195 224 4,500 -500 Descending Atlanta Center
Sat 11:14:41 34.6208 -83.3447 210° Southwest 195 224 4,000 -600 Descending Atlanta Center
Sat 11:15:41 34.5878 -83.3878 227° Southwest 185 213 3,300 -700 Descending Atlanta Center

Login

Don't have an account? Register now (free) for customized features, flight alerts, and more!